CCM42Z LFKB-LIEO
Flight info
| Callsign | CCM42Z |
|---|---|
| Flight time | N/A |
| Altitude | 13000 |
| Route | BREMO2V BREMO DCT OLBEK OLBEK3A |
| Aircraft | AT76/M-SDFGIRY/S |
Departure
| Time | 2026-04-28 18:13 |
|---|---|
| Airport | Bastia-Poretta International airport (LFKB) |
Arrival
| Time | N/A |
|---|---|
| Airport | Olbia Costa Smeralda Airport (LIEO) |
| Time | Latitude | Longitude | Altitude | Speed | Heading |
|---|---|---|---|---|---|
| 2026-04-28 17:55 | 42.54784 | 9.48184 | 27 ft | 0 kts | 283° |
| 2026-04-28 18:07 | 42.54783 | 9.48188 | 27 ft | 2 kts | 283° |
| 2026-04-28 18:07 | 42.54775 | 9.48235 | 27 ft | 8 kts | 283° |
| 2026-04-28 18:08 | 42.54765 | 9.48300 | 27 ft | 1 kts | 283° |
| 2026-04-28 18:08 | 42.54767 | 9.48299 | 27 ft | 1 kts | 311° |
| 2026-04-28 18:08 | 42.54775 | 9.48300 | 27 ft | 6 kts | 354° |
| 2026-04-28 18:08 | 42.54850 | 9.48271 | 27 ft | 13 kts | 341° |
| 2026-04-28 18:09 | 42.54934 | 9.48238 | 26 ft | 13 kts | 344° |
| 2026-04-28 18:09 | 42.55019 | 9.48220 | 26 ft | 12 kts | 346° |
| 2026-04-28 18:09 | 42.55104 | 9.48186 | 27 ft | 14 kts | 343° |
| 2026-04-28 18:09 | 42.55195 | 9.48149 | 26 ft | 13 kts | 343° |
| 2026-04-28 18:10 | 42.55282 | 9.48112 | 26 ft | 13 kts | 342° |
| 2026-04-28 18:10 | 42.55383 | 9.48070 | 25 ft | 18 kts | 343° |
| 2026-04-28 18:10 | 42.55514 | 9.48014 | 26 ft | 19 kts | 341° |
| 2026-04-28 18:10 | 42.55631 | 9.47962 | 22 ft | 17 kts | 342° |
| 2026-04-28 18:11 | 42.55735 | 9.47915 | 22 ft | 15 kts | 341° |
| 2026-04-28 18:11 | 42.55828 | 9.47875 | 22 ft | 14 kts | 344° |
| 2026-04-28 18:11 | 42.55917 | 9.47874 | 21 ft | 13 kts | 28° |
| 2026-04-28 18:11 | 42.55970 | 9.48016 | 20 ft | 19 kts | 81° |
| 2026-04-28 18:12 | 42.55904 | 9.48123 | 21 ft | 15 kts | 165° |
| 2026-04-28 18:12 | 42.55611 | 9.48234 | 24 ft | 71 kts | 162° |
| 2026-04-28 18:12 | 42.54961 | 9.48493 | 34 ft | 120 kts | 164° |
| 2026-04-28 18:12 | 42.54231 | 9.48861 | 561 ft | 111 kts | 157° |
| 2026-04-28 18:13 | 42.53417 | 9.49329 | 720 ft | 142 kts | 162° |
| 2026-04-28 18:13 | 42.52453 | 9.49704 | 1210 ft | 148 kts | 166° |
| 2026-04-28 18:13 | 42.51435 | 9.50048 | 1705 ft | 154 kts | 166° |
| 2026-04-28 18:13 | 42.50393 | 9.50422 | 2207 ft | 158 kts | 165° |
| 2026-04-28 18:14 | 42.49313 | 9.50850 | 2719 ft | 162 kts | 163° |
| 2026-04-28 18:14 | 42.48228 | 9.51307 | 3215 ft | 166 kts | 163° |
| 2026-04-28 18:14 | 42.47115 | 9.51790 | 3726 ft | 169 kts | 163° |
| 2026-04-28 18:14 | 42.45991 | 9.52278 | 4209 ft | 174 kts | 162° |
| 2026-04-28 18:15 | 42.44826 | 9.52796 | 4709 ft | 180 kts | 162° |
| 2026-04-28 18:15 | 42.43609 | 9.53324 | 5217 ft | 185 kts | 163° |
| 2026-04-28 18:15 | 42.42311 | 9.53875 | 5737 ft | 189 kts | 163° |
| 2026-04-28 18:15 | 42.41037 | 9.54418 | 6253 ft | 193 kts | 163° |
| 2026-04-28 18:16 | 42.39748 | 9.54959 | 6752 ft | 197 kts | 163° |
| 2026-04-28 18:16 | 42.38415 | 9.55511 | 7258 ft | 201 kts | 163° |
| 2026-04-28 18:16 | 42.37088 | 9.56090 | 7756 ft | 203 kts | 163° |
| 2026-04-28 18:16 | 42.35894 | 9.56595 | 8195 ft | 206 kts | 163° |
| 2026-04-28 18:17 | 42.34514 | 9.57159 | 8701 ft | 208 kts | 164° |
| 2026-04-28 18:17 | 42.33124 | 9.57714 | 9198 ft | 211 kts | 164° |
| 2026-04-28 18:17 | 42.31708 | 9.58205 | 9696 ft | 212 kts | 168° |
| 2026-04-28 18:17 | 42.30243 | 9.58582 | 10200 ft | 214 kts | 171° |
| 2026-04-28 18:18 | 42.28779 | 9.58922 | 10699 ft | 215 kts | 171° |
| 2026-04-28 18:18 | 42.27290 | 9.59263 | 11199 ft | 216 kts | 171° |
| 2026-04-28 18:18 | 42.25814 | 9.59633 | 11701 ft | 216 kts | 170° |
| 2026-04-28 18:18 | 42.24834 | 9.59921 | 12033 ft | 217 kts | 164° |
| 2026-04-28 18:19 | 42.22936 | 9.60793 | 12702 ft | 216 kts | 161° |
| 2026-04-28 18:19 | 42.21477 | 9.61460 | 12891 ft | 232 kts | 163° |
| 2026-04-28 18:19 | 42.19860 | 9.62061 | 12926 ft | 245 kts | 171° |
| 2026-04-28 18:19 | 42.18249 | 9.61776 | 12935 ft | 229 kts | 201° |
| 2026-04-28 18:20 | 42.16722 | 9.60951 | 12241 ft | 249 kts | 202° |
| 2026-04-28 18:20 | 42.15041 | 9.60123 | 11738 ft | 262 kts | 198° |
| 2026-04-28 18:20 | 42.13296 | 9.59474 | 11246 ft | 263 kts | 193° |
| 2026-04-28 18:20 | 42.11477 | 9.58980 | 10740 ft | 262 kts | 191° |
| 2026-04-28 18:21 | 42.09719 | 9.58542 | 10241 ft | 257 kts | 191° |
| 2026-04-28 18:21 | 42.08545 | 9.58246 | 9903 ft | 255 kts | 191° |
| 2026-04-28 18:21 | 42.06810 | 9.57798 | 9398 ft | 252 kts | 192° |
| 2026-04-28 18:21 | 42.05078 | 9.57333 | 8889 ft | 257 kts | 193° |
| 2026-04-28 18:22 | 42.03317 | 9.56803 | 8287 ft | 258 kts | 192° |
| 2026-04-28 18:22 | 42.01589 | 9.56319 | 7791 ft | 253 kts | 192° |
| 2026-04-28 18:22 | 41.99865 | 9.55844 | 7296 ft | 249 kts | 192° |
| 2026-04-28 18:22 | 41.98166 | 9.55375 | 6804 ft | 246 kts | 192° |
| 2026-04-28 18:23 | 41.96510 | 9.54917 | 6380 ft | 242 kts | 192° |
| 2026-04-28 18:23 | 41.94901 | 9.54475 | 6164 ft | 228 kts | 192° |
| 2026-04-28 18:23 | 41.93417 | 9.54068 | 6063 ft | 213 kts | 192° |
| 2026-04-28 18:23 | 41.91893 | 9.53669 | 6019 ft | 231 kts | 191° |
| 2026-04-28 18:24 | 41.90343 | 9.53266 | 6003 ft | 218 kts | 192° |
| 2026-04-28 18:24 | 41.89369 | 9.53011 | 5991 ft | 210 kts | 192° |
| 2026-04-28 18:24 | 41.87514 | 9.52516 | 5984 ft | 201 kts | 192° |
| 2026-04-28 18:24 | 41.86149 | 9.52145 | 5979 ft | 196 kts | 192° |
| 2026-04-28 18:25 | 41.84835 | 9.51788 | 5978 ft | 191 kts | 192° |
| 2026-04-28 18:25 | 41.83546 | 9.51434 | 5979 ft | 187 kts | 192° |
| 2026-04-28 18:25 | 41.82184 | 9.51069 | 5986 ft | 213 kts | 192° |
| 2026-04-28 18:26 | 41.79036 | 9.50173 | 5990 ft | 250 kts | 192° |
| 2026-04-28 18:26 | 41.77276 | 9.49666 | 5989 ft | 263 kts | 193° |
| 2026-04-28 18:26 | 41.75618 | 9.48748 | 5986 ft | 263 kts | 217° |
| 2026-04-28 18:26 | 41.74272 | 9.47033 | 5963 ft | 268 kts | 229° |
| 2026-04-28 18:27 | 41.73066 | 9.45105 | 5633 ft | 270 kts | 230° |
| 2026-04-28 18:27 | 41.71847 | 9.43231 | 5309 ft | 258 kts | 229° |
| 2026-04-28 18:27 | 41.70710 | 9.41465 | 4970 ft | 248 kts | 230° |
| 2026-04-28 18:27 | 41.69592 | 9.39736 | 4605 ft | 241 kts | 229° |
| 2026-04-28 18:28 | 41.68486 | 9.38039 | 4239 ft | 247 kts | 229° |
| 2026-04-28 18:28 | 41.67392 | 9.36345 | 4084 ft | 231 kts | 230° |
| 2026-04-28 18:28 | 41.66386 | 9.34777 | 4026 ft | 218 kts | 230° |
| 2026-04-28 18:28 | 41.65389 | 9.33211 | 4010 ft | 220 kts | 230° |
| 2026-04-28 18:29 | 41.64406 | 9.31661 | 3993 ft | 221 kts | 230° |
| 2026-04-28 18:29 | 41.63411 | 9.30105 | 3988 ft | 221 kts | 230° |
| 2026-04-28 18:29 | 41.62394 | 9.28534 | 3928 ft | 223 kts | 229° |
| 2026-04-28 18:29 | 41.61358 | 9.26929 | 3624 ft | 236 kts | 230° |
| 2026-04-28 18:30 | 41.60276 | 9.25241 | 3261 ft | 242 kts | 230° |
| 2026-04-28 18:30 | 41.59541 | 9.24098 | 3017 ft | 235 kts | 229° |
| 2026-04-28 18:30 | 41.58162 | 9.21957 | 2527 ft | 224 kts | 229° |
| 2026-04-28 18:30 | 41.57160 | 9.20392 | 2188 ft | 218 kts | 229° |
| 2026-04-28 18:31 | 41.56191 | 9.18883 | 1859 ft | 212 kts | 229° |
| 2026-04-28 18:31 | 41.55250 | 9.17418 | 1543 ft | 206 kts | 229° |
| 2026-04-28 18:31 | 41.54355 | 9.16021 | 1234 ft | 185 kts | 229° |
| 2026-04-28 18:31 | 41.53568 | 9.14795 | 988 ft | 167 kts | 228° |
| 2026-04-28 18:32 | 41.52826 | 9.13656 | 762 ft | 154 kts | 228° |
| 2026-04-28 18:32 | 41.52180 | 9.12651 | 570 ft | 134 kts | 229° |
| 2026-04-28 18:32 | 41.51623 | 9.11717 | 363 ft | 128 kts | 228° |
| 2026-04-28 18:32 | 41.51024 | 9.10846 | 140 ft | 124 kts | 223° |
| 2026-04-28 18:33 | 41.50522 | 9.10135 | 74 ft | 60 kts | 227° |
| 2026-04-28 18:33 | 41.50328 | 9.09848 | 66 ft | 36 kts | 227° |
| 2026-04-28 18:33 | 41.50188 | 9.09704 | 66 ft | 9 kts | 152° |
| 2026-04-28 18:33 | 41.50138 | 9.09767 | 62 ft | 10 kts | 135° |
| 2026-04-28 18:34 | 41.50078 | 9.09816 | 66 ft | 12 kts | 182° |
| 2026-04-28 18:34 | 41.49994 | 9.09722 | 62 ft | 17 kts | 219° |
| 2026-04-28 18:34 | 41.49963 | 9.09727 | 59 ft | 5 kts | 122° |
| 2026-04-28 18:34 | 41.49937 | 9.09759 | 65 ft | 0 kts | 136° |